< < Back
Terminal Aerodrome Forecast


Current Version              Previous Versions:   1  2  3  4  5  6  7  8  9  

Terminal Aerodrome Forecast

227
FTUS42 KCAE 240233 AAB
TAFAGS
TAF AMD
KAGS 240233Z 2403/2424 VRB03KT P6SM SCT200
     FM241500 22006KT P6SM SCT050 SCT200=

Latest METAR

705
SAUS70 KWBC 240800 RRL
MTRAGS
METAR KAGS 240753Z AUTO 00000KT 10SM CLR 22/22 A3000 RMK AO2 SLP157
T02220217


USA.gov is the U.S. government's official web portal to all federal, state and local government web resources and services.